Données. Loja

Actualisé: jeudi, 5 mars 2015 08:32 (heure officielle)
Ind. climatologique: 5582A -  Altitude (m): 594
Latitude37° 9' 40'' N - Longitude4° 9' 10'' O -  PositionVoir localisation
MunicipioLoja (Granada) - Ver predicción
Registros - de
Fecha y hora oficial

 

Temp. (°C)

 

Vit. vent (km/h)

 

Dir. vent

 

Rafale (km/h)

 

Dir. rafale

 

Prec. (mm)

 

Pression (hPa)

 

Tend. (hPa)

 

Humidité (%)

 

05/03/2015 08:00 6.4 3 5-Sud-EstSud-Est 9 5-Sud-EstSud-Est 0.0 958.2 0.6 38
05/03/2015 07:00 6.6 5 6-SudSud 10 5-Sud-EstSud-Est 0.0 957.9 0.1 38
05/03/2015 06:00 7.8 5 5-Sud-EstSud-Est 12 4-EstEst 0.0 957.9 0.4 37
05/03/2015 05:00 8.9 6 4-EstEst 13 4-EstEst 0.0 957.6 -0.2 37
05/03/2015 04:00 8.9 2 7-Sud-OuestSud-Ouest 19 4-EstEst 0.0 957.8 -0.1 38
05/03/2015 03:00 10.5 4 3-Nord-EstNord-Est 18 4-EstEst 0.0 957.5 -0.2 35
05/03/2015 02:00 11.2 5 4-EstEst 16 5-Sud-EstSud-Est 0.1 957.8 0.4 36
05/03/2015 01:00 12.4 8 5-Sud-EstSud-Est 19 6-SudSud 0.0 957.9 0.9 35
05/03/2015 00:00 15.3 10 5-Sud-EstSud-Est 23 6-SudSud 0.0 957.7 1.0 30
04/03/2015 23:00 15.6 11 6-SudSud 26 5-Sud-EstSud-Est 0.0 957.4 1.4 30
04/03/2015 22:00 15.8 11 5-Sud-EstSud-Est 31 6-SudSud 0.0 957.0 1.3 30
04/03/2015 21:00 16.7 10 5-Sud-EstSud-Est 25 6-SudSud 0.0 956.7 1.8 33
04/03/2015 20:00 16.6 5 5-Sud-EstSud-Est 12 8-OuestOuest 0.0 956.0 1.2 32
04/03/2015 19:00 17.8 4 8-OuestOuest 16 8-OuestOuest 0.0 955.7 0.8 31
04/03/2015 18:00 19.9 6 8-OuestOuest 19 9-Nord-OuestNord-Ouest 0.0 954.9 -0.2 29
04/03/2015 17:00 20.9 7 9-Nord-OuestNord-Ouest 18 9-Nord-OuestNord-Ouest 0.0 954.8 -0.6 26
04/03/2015 16:00 20.8 10 9-Nord-OuestNord-Ouest 18 9-Nord-OuestNord-Ouest 0.0 954.9 -1.4 29
04/03/2015 15:00 21.8 5 8-OuestOuest 21 9-Nord-OuestNord-Ouest 0.0 955.1 -1.6 30
04/03/2015 14:00 20.4 3 2-NordNord 8 9-Nord-OuestNord-Ouest 0.0 955.4 -1.9 38
04/03/2015 13:00 16.2 4 3-Nord-EstNord-Est 13 3-Nord-EstNord-Est 0.0 956.3 -0.6 53
04/03/2015 12:00 13.1 8 3-Nord-EstNord-Est 20 2-NordNord 0.0 956.7 0.0 66
04/03/2015 11:00 11.5 9 3-Nord-EstNord-Est 21 2-NordNord 0.0 957.3 1.1 71
04/03/2015 10:00 10.0 8 4-EstEst 24 4-EstEst 0.0 956.9 1.2 78
04/03/2015 09:00 9.5 8 3-Nord-EstNord-Est 20 4-EstEst 0.0 956.7 1.4 78
First Page First Page First Page Last Page
Lineas por página
Página   de  
Partager:  
En esta página podrá acceder, en forma gráfica y en tabla, a las observaciones horarias de las últimas 24 horas, así como a los valores extremos y acumulados desde las 00 horas del día hasta la hora de actualización indicada, obtenidos en la red de estaciones de AEMET. También podrá acceder a los resúmenes diarios de estas estaciones en los últimos 7 días.

En el mapa aparecen estaciones con valor númerico y otras representadas por un punto. En las primeras, al pasar el ratón, aparece un desplegable con la información completa de la estación. Las estaciones representadas por un punto son estaciones de la red climatológica, con transmisión de datos superior a la hora, por lo que al seleccionarlas pueden no aparecer los últimos datos.

Los datos presentados han sido únicamente sometidos a controles automáticos de calidad en tiempo real, por lo que no puede garantizarse la ausencia de errores.
Toute utilisation et reproduction de l'information est autorisé sous réserve de mentionner AEMETen tant qu'auteur de celle-ci